sensor_id;sensor_type;location;lat;lon;timestamp;P1;durP1;ratioP1;P2;durP2;ratioP2
21010;SDS011;10663;42.714;23.274;2023-04-24T00:00:46;12.35;;;8.35;;
21010;SDS011;10663;42.714;23.274;2023-04-24T00:02:17;10.73;;;8.05;;
21010;SDS011;10663;42.714;23.274;2023-04-24T00:03:49;10.88;;;7.93;;
21010;SDS011;10663;42.714;23.274;2023-04-24T00:05:20;10.07;;;8.10;;
21010;SDS011;10663;42.714;23.274;2023-04-24T00:06:51;11.25;;;9.32;;
21010;SDS011;10663;42.714;23.274;2023-04-24T00:08:27;11.07;;;9.00;;
21010;SDS011;10663;42.714;23.274;2023-04-24T00:09:58;12.80;;;9.77;;
21010;SDS011;10663;42.714;23.274;2023-04-24T00:11:29;13.38;;;9.20;;
21010;SDS011;10663;42.714;23.274;2023-04-24T00:13:00;13.80;;;9.52;;
21010;SDS011;10663;42.714;23.274;2023-04-24T00:14:31;11.90;;;8.73;;
21010;SDS011;10663;42.714;23.274;2023-04-24T00:16:02;13.73;;;9.23;;
21010;SDS011;10663;42.714;23.274;2023-04-24T00:17:33;10.57;;;8.37;;
21010;SDS011;10663;42.714;23.274;2023-04-24T00:19:04;12.00;;;8.57;;
21010;SDS011;10663;42.714;23.274;2023-04-24T00:20:36;10.77;;;8.70;;
21010;SDS011;10663;42.714;23.274;2023-04-24T00:22:07;11.88;;;8.52;;
21010;SDS011;10663;42.714;23.274;2023-04-24T00:23:38;11.95;;;8.80;;
21010;SDS011;10663;42.714;23.274;2023-04-24T00:25:09;14.07;;;9.20;;
21010;SDS011;10663;42.714;23.274;2023-04-24T00:26:40;13.75;;;8.70;;
21010;SDS011;10663;42.714;23.274;2023-04-24T00:28:11;10.00;;;8.40;;
21010;SDS011;10663;42.714;23.274;2023-04-24T00:29:42;11.85;;;8.52;;
21010;SDS011;10663;42.714;23.274;2023-04-24T00:31:13;11.27;;;8.48;;
21010;SDS011;10663;42.714;23.274;2023-04-24T00:32:44;12.63;;;8.65;;
21010;SDS011;10663;42.714;23.274;2023-04-24T00:34:15;11.98;;;8.52;;
21010;SDS011;10663;42.714;23.274;2023-04-24T00:35:46;11.60;;;8.75;;
21010;SDS011;10663;42.714;23.274;2023-04-24T00:37:17;11.77;;;8.38;;
21010;SDS011;10663;42.714;23.274;2023-04-24T00:38:48;11.03;;;8.20;;
21010;SDS011;10663;42.714;23.274;2023-04-24T00:40:19;12.13;;;8.97;;
21010;SDS011;10663;42.714;23.274;2023-04-24T00:41:50;13.48;;;8.30;;
21010;SDS011;10663;42.714;23.274;2023-04-24T00:43:21;12.60;;;8.70;;
21010;SDS011;10663;42.714;23.274;2023-04-24T00:44:53;11.77;;;8.63;;
21010;SDS011;10663;42.714;23.274;2023-04-24T00:46:24;11.52;;;8.40;;
21010;SDS011;10663;42.714;23.274;2023-04-24T00:47:55;12.45;;;7.60;;
21010;SDS011;10663;42.714;23.274;2023-04-24T00:49:27;9.93;;;7.88;;
21010;SDS011;10663;42.714;23.274;2023-04-24T00:50:58;11.10;;;8.73;;
21010;SDS011;10663;42.714;23.274;2023-04-24T00:52:29;12.65;;;8.32;;
21010;SDS011;10663;42.714;23.274;2023-04-24T00:54:01;12.68;;;8.80;;
21010;SDS011;10663;42.714;23.274;2023-04-24T00:55:32;13.13;;;9.32;;
21010;SDS011;10663;42.714;23.274;2023-04-24T00:57:03;12.95;;;8.27;;
21010;SDS011;10663;42.714;23.274;2023-04-24T00:58:35;13.73;;;8.10;;
21010;SDS011;10663;42.714;23.274;2023-04-24T01:00:06;10.70;;;7.55;;
21010;SDS011;10663;42.714;23.274;2023-04-24T01:01:42;10.23;;;7.40;;
21010;SDS011;10663;42.714;23.274;2023-04-24T01:03:14;10.95;;;7.80;;
21010;SDS011;10663;42.714;23.274;2023-04-24T01:04:45;11.45;;;7.78;;
21010;SDS011;10663;42.714;23.274;2023-04-24T01:06:17;10.20;;;7.90;;
21010;SDS011;10663;42.714;23.274;2023-04-24T01:07:50;8.90;;;7.40;;
21010;SDS011;10663;42.714;23.274;2023-04-24T01:09:21;11.27;;;7.07;;
21010;SDS011;10663;42.714;23.274;2023-04-24T01:10:54;9.80;;;6.95;;
21010;SDS011;10663;42.714;23.274;2023-04-24T01:12:27;12.45;;;9.30;;
21010;SDS011;10663;42.714;23.274;2023-04-24T01:13:58;12.10;;;9.15;;
21010;SDS011;10663;42.714;23.274;2023-04-24T01:15:30;11.02;;;9.48;;
21010;SDS011;10663;42.714;23.274;2023-04-24T01:17:01;11.48;;;9.23;;
21010;SDS011;10663;42.714;23.274;2023-04-24T01:18:32;10.77;;;9.05;;
21010;SDS011;10663;42.714;23.274;2023-04-24T01:20:03;15.20;;;9.00;;
21010;SDS011;10663;42.714;23.274;2023-04-24T01:21:36;10.45;;;7.93;;
21010;SDS011;10663;42.714;23.274;2023-04-24T01:23:08;12.52;;;8.57;;
21010;SDS011;10663;42.714;23.274;2023-04-24T01:24:39;10.10;;;7.95;;
21010;SDS011;10663;42.714;23.274;2023-04-24T01:26:10;8.88;;;6.80;;
21010;SDS011;10663;42.714;23.274;2023-04-24T01:27:43;12.30;;;7.88;;
21010;SDS011;10663;42.714;23.274;2023-04-24T01:29:15;11.27;;;7.65;;
21010;SDS011;10663;42.714;23.274;2023-04-24T01:30:47;11.60;;;7.90;;
21010;SDS011;10663;42.714;23.274;2023-04-24T01:32:19;11.55;;;8.30;;
21010;SDS011;10663;42.714;23.274;2023-04-24T01:33:50;10.52;;;7.75;;
21010;SDS011;10663;42.714;23.274;2023-04-24T01:35:22;9.70;;;6.93;;
21010;SDS011;10663;42.714;23.274;2023-04-24T01:36:53;12.35;;;7.07;;
21010;SDS011;10663;42.714;23.274;2023-04-24T01:38:24;8.75;;;7.50;;
21010;SDS011;10663;42.714;23.274;2023-04-24T01:39:55;10.98;;;8.13;;
21010;SDS011;10663;42.714;23.274;2023-04-24T01:41:26;12.65;;;8.50;;
21010;SDS011;10663;42.714;23.274;2023-04-24T01:42:58;13.63;;;8.88;;
21010;SDS011;10663;42.714;23.274;2023-04-24T01:44:29;12.13;;;9.80;;
21010;SDS011;10663;42.714;23.274;2023-04-24T01:46:00;13.48;;;9.80;;
21010;SDS011;10663;42.714;23.274;2023-04-24T01:47:33;13.13;;;9.68;;
21010;SDS011;10663;42.714;23.274;2023-04-24T01:49:04;13.27;;;9.70;;
21010;SDS011;10663;42.714;23.274;2023-04-24T01:50:35;11.82;;;9.48;;
21010;SDS011;10663;42.714;23.274;2023-04-24T01:52:08;11.00;;;9.80;;
21010;SDS011;10663;42.714;23.274;2023-04-24T01:53:39;13.73;;;9.23;;
21010;SDS011;10663;42.714;23.274;2023-04-24T01:55:10;11.18;;;8.55;;
21010;SDS011;10663;42.714;23.274;2023-04-24T01:56:42;9.68;;;8.25;;
21010;SDS011;10663;42.714;23.274;2023-04-24T01:58:13;10.98;;;8.70;;
21010;SDS011;10663;42.714;23.274;2023-04-24T01:59:45;11.77;;;9.50;;
21010;SDS011;10663;42.714;23.274;2023-04-24T02:01:22;11.93;;;9.65;;
21010;SDS011;10663;42.714;23.274;2023-04-24T02:02:55;12.93;;;9.98;;
21010;SDS011;10663;42.714;23.274;2023-04-24T02:04:25;11.40;;;8.60;;
21010;SDS011;10663;42.714;23.274;2023-04-24T02:05:56;10.90;;;8.98;;
21010;SDS011;10663;42.714;23.274;2023-04-24T02:07:28;11.43;;;8.80;;
21010;SDS011;10663;42.714;23.274;2023-04-24T02:08:59;12.15;;;8.68;;
21010;SDS011;10663;42.714;23.274;2023-04-24T02:10:30;11.05;;;9.25;;
21010;SDS011;10663;42.714;23.274;2023-04-24T02:12:03;9.27;;;8.37;;
21010;SDS011;10663;42.714;23.274;2023-04-24T02:13:34;12.68;;;9.02;;
21010;SDS011;10663;42.714;23.274;2023-04-24T02:15:05;11.35;;;8.40;;
21010;SDS011;10663;42.714;23.274;2023-04-24T02:16:37;9.80;;;8.43;;
21010;SDS011;10663;42.714;23.274;2023-04-24T02:18:07;10.67;;;8.20;;
21010;SDS011;10663;42.714;23.274;2023-04-24T02:19:39;10.07;;;8.80;;
21010;SDS011;10663;42.714;23.274;2023-04-24T02:21:10;10.25;;;8.63;;
21010;SDS011;10663;42.714;23.274;2023-04-24T02:22:41;11.18;;;8.75;;
21010;SDS011;10663;42.714;23.274;2023-04-24T02:24:12;12.18;;;9.05;;
21010;SDS011;10663;42.714;23.274;2023-04-24T02:25:42;11.07;;;9.50;;
21010;SDS011;10663;42.714;23.274;2023-04-24T02:27:13;10.88;;;9.07;;
21010;SDS011;10663;42.714;23.274;2023-04-24T02:28:45;10.82;;;8.75;;
21010;SDS011;10663;42.714;23.274;2023-04-24T02:30:16;12.70;;;8.97;;
21010;SDS011;10663;42.714;23.274;2023-04-24T02:31:47;13.13;;;10.40;;
21010;SDS011;10663;42.714;23.274;2023-04-24T02:33:18;12.82;;;10.70;;
21010;SDS011;10663;42.714;23.274;2023-04-24T02:34:50;13.10;;;11.23;;
21010;SDS011;10663;42.714;23.274;2023-04-24T02:36:21;16.03;;;11.27;;
21010;SDS011;10663;42.714;23.274;2023-04-24T02:37:52;13.85;;;10.52;;
21010;SDS011;10663;42.714;23.274;2023-04-24T02:39:23;12.55;;;10.40;;
21010;SDS011;10663;42.714;23.274;2023-04-24T02:40:54;13.32;;;10.35;;
21010;SDS011;10663;42.714;23.274;2023-04-24T02:42:25;12.30;;;10.50;;
21010;SDS011;10663;42.714;23.274;2023-04-24T02:43:56;13.32;;;10.73;;
21010;SDS011;10663;42.714;23.274;2023-04-24T02:45:27;12.75;;;10.32;;
21010;SDS011;10663;42.714;23.274;2023-04-24T02:46:57;15.20;;;10.40;;
21010;SDS011;10663;42.714;23.274;2023-04-24T02:48:28;12.63;;;10.70;;
21010;SDS011;10663;42.714;23.274;2023-04-24T02:50:00;12.27;;;10.57;;
21010;SDS011;10663;42.714;23.274;2023-04-24T02:51:31;13.40;;;10.68;;
21010;SDS011;10663;42.714;23.274;2023-04-24T02:53:02;13.30;;;10.57;;
21010;SDS011;10663;42.714;23.274;2023-04-24T02:54:33;12.60;;;10.32;;
21010;SDS011;10663;42.714;23.274;2023-04-24T02:56:04;12.05;;;10.20;;
21010;SDS011;10663;42.714;23.274;2023-04-24T02:57:35;13.02;;;10.02;;
21010;SDS011;10663;42.714;23.274;2023-04-24T02:59:06;12.02;;;9.80;;
21010;SDS011;10663;42.714;23.274;2023-04-24T03:00:37;12.95;;;10.18;;
21010;SDS011;10663;42.714;23.274;2023-04-24T03:02:07;15.65;;;10.63;;
21010;SDS011;10663;42.714;23.274;2023-04-24T03:03:39;12.38;;;9.75;;
21010;SDS011;10663;42.714;23.274;2023-04-24T03:05:10;12.10;;;10.13;;
21010;SDS011;10663;42.714;23.274;2023-04-24T03:06:42;12.07;;;9.90;;
21010;SDS011;10663;42.714;23.274;2023-04-24T03:08:13;12.85;;;9.40;;
21010;SDS011;10663;42.714;23.274;2023-04-24T03:09:46;14.10;;;9.38;;
21010;SDS011;10663;42.714;23.274;2023-04-24T03:11:19;10.50;;;9.32;;
21010;SDS011;10663;42.714;23.274;2023-04-24T03:12:50;14.52;;;9.73;;
21010;SDS011;10663;42.714;23.274;2023-04-24T03:14:22;12.35;;;9.65;;
21010;SDS011;10663;42.714;23.274;2023-04-24T03:15:53;12.00;;;10.13;;
21010;SDS011;10663;42.714;23.274;2023-04-24T03:17:25;18.85;;;13.45;;
21010;SDS011;10663;42.714;23.274;2023-04-24T03:18:56;20.27;;;14.30;;
21010;SDS011;10663;42.714;23.274;2023-04-24T03:20:29;20.08;;;13.73;;
21010;SDS011;10663;42.714;23.274;2023-04-24T03:22:02;16.23;;;12.48;;
21010;SDS011;10663;42.714;23.274;2023-04-24T03:23:34;14.25;;;9.73;;
21010;SDS011;10663;42.714;23.274;2023-04-24T03:25:05;13.20;;;10.52;;
21010;SDS011;10663;42.714;23.274;2023-04-24T03:26:38;12.55;;;10.45;;
21010;SDS011;10663;42.714;23.274;2023-04-24T03:28:21;13.30;;;11.10;;
21010;SDS011;10663;42.714;23.274;2023-04-24T03:30:12;13.88;;;11.02;;
21010;SDS011;10663;42.714;23.274;2023-04-24T03:31:49;14.25;;;11.18;;
21010;SDS011;10663;42.714;23.274;2023-04-24T03:33:20;15.57;;;10.98;;
21010;SDS011;10663;42.714;23.274;2023-04-24T03:35:01;14.60;;;11.13;;
21010;SDS011;10663;42.714;23.274;2023-04-24T03:36:32;15.60;;;12.25;;
21010;SDS011;10663;42.714;23.274;2023-04-24T03:38:02;19.40;;;12.60;;
21010;SDS011;10663;42.714;23.274;2023-04-24T03:39:44;14.63;;;11.32;;
21010;SDS011;10663;42.714;23.274;2023-04-24T03:41:15;15.88;;;11.68;;
21010;SDS011;10663;42.714;23.274;2023-04-24T03:42:53;15.13;;;11.55;;
21010;SDS011;10663;42.714;23.274;2023-04-24T03:44:24;16.10;;;11.63;;
21010;SDS011;10663;42.714;23.274;2023-04-24T03:45:55;14.63;;;11.67;;
21010;SDS011;10663;42.714;23.274;2023-04-24T03:47:26;14.02;;;10.63;;
21010;SDS011;10663;42.714;23.274;2023-04-24T03:49:01;13.35;;;11.13;;
21010;SDS011;10663;42.714;23.274;2023-04-24T03:50:36;19.85;;;12.95;;
21010;SDS011;10663;42.714;23.274;2023-04-24T03:52:08;18.90;;;12.07;;
21010;SDS011;10663;42.714;23.274;2023-04-24T03:53:39;16.10;;;12.18;;
21010;SDS011;10663;42.714;23.274;2023-04-24T03:55:12;17.08;;;11.90;;
21010;SDS011;10663;42.714;23.274;2023-04-24T03:56:48;18.70;;;11.95;;
21010;SDS011;10663;42.714;23.274;2023-04-24T03:58:19;17.88;;;11.65;;
21010;SDS011;10663;42.714;23.274;2023-04-24T03:59:50;18.03;;;11.97;;
21010;SDS011;10663;42.714;23.274;2023-04-24T04:01:23;18.77;;;11.83;;
21010;SDS011;10663;42.714;23.274;2023-04-24T04:03:05;15.68;;;12.13;;
21010;SDS011;10663;42.714;23.274;2023-04-24T04:04:36;19.42;;;12.68;;
21010;SDS011;10663;42.714;23.274;2023-04-24T04:06:07;21.42;;;15.13;;
21010;SDS011;10663;42.714;23.274;2023-04-24T04:07:38;18.23;;;12.77;;
21010;SDS011;10663;42.714;23.274;2023-04-24T04:09:09;16.50;;;12.00;;
21010;SDS011;10663;42.714;23.274;2023-04-24T04:10:41;17.70;;;11.93;;
21010;SDS011;10663;42.714;23.274;2023-04-24T04:12:12;16.83;;;11.88;;
21010;SDS011;10663;42.714;23.274;2023-04-24T04:13:43;17.98;;;11.82;;
21010;SDS011;10663;42.714;23.274;2023-04-24T04:15:14;17.70;;;11.75;;
21010;SDS011;10663;42.714;23.274;2023-04-24T04:16:45;16.65;;;11.35;;
21010;SDS011;10663;42.714;23.274;2023-04-24T04:18:17;20.60;;;12.20;;
21010;SDS011;10663;42.714;23.274;2023-04-24T04:19:48;21.13;;;12.77;;
21010;SDS011;10663;42.714;23.274;2023-04-24T04:21:19;23.15;;;14.63;;
21010;SDS011;10663;42.714;23.274;2023-04-24T04:22:52;27.33;;;16.35;;
21010;SDS011;10663;42.714;23.274;2023-04-24T04:24:35;26.08;;;15.20;;
21010;SDS011;10663;42.714;23.274;2023-04-24T04:26:08;21.92;;;16.38;;
21010;SDS011;10663;42.714;23.274;2023-04-24T04:27:58;23.50;;;15.57;;
21010;SDS011;10663;42.714;23.274;2023-04-24T04:29:30;20.42;;;14.63;;
21010;SDS011;10663;42.714;23.274;2023-04-24T04:31:06;17.38;;;13.88;;
21010;SDS011;10663;42.714;23.274;2023-04-24T04:32:38;20.60;;;13.07;;
21010;SDS011;10663;42.714;23.274;2023-04-24T04:34:09;18.95;;;14.70;;
21010;SDS011;10663;42.714;23.274;2023-04-24T04:35:40;22.00;;;14.38;;
21010;SDS011;10663;42.714;23.274;2023-04-24T04:37:11;21.65;;;14.75;;
21010;SDS011;10663;42.714;23.274;2023-04-24T04:39:06;19.67;;;13.20;;
21010;SDS011;10663;42.714;23.274;2023-04-24T04:40:58;20.93;;;13.30;;
21010;SDS011;10663;42.714;23.274;2023-04-24T04:42:33;22.70;;;14.45;;
21010;SDS011;10663;42.714;23.274;2023-04-24T04:44:11;19.70;;;13.98;;
21010;SDS011;10663;42.714;23.274;2023-04-24T04:45:43;24.73;;;14.93;;
21010;SDS011;10663;42.714;23.274;2023-04-24T04:47:35;20.65;;;13.93;;
21010;SDS011;10663;42.714;23.274;2023-04-24T04:49:06;23.55;;;14.60;;
21010;SDS011;10663;42.714;23.274;2023-04-24T04:50:39;23.20;;;14.68;;
21010;SDS011;10663;42.714;23.274;2023-04-24T04:52:12;19.17;;;13.55;;
21010;SDS011;10663;42.714;23.274;2023-04-24T04:53:43;22.90;;;14.60;;
21010;SDS011;10663;42.714;23.274;2023-04-24T04:55:14;19.50;;;14.20;;
21010;SDS011;10663;42.714;23.274;2023-04-24T04:57:11;17.77;;;11.02;;
21010;SDS011;10663;42.714;23.274;2023-04-24T04:58:42;14.50;;;11.20;;
21010;SDS011;10663;42.714;23.274;2023-04-24T05:00:16;17.40;;;11.50;;
21010;SDS011;10663;42.714;23.274;2023-04-24T05:01:54;18.83;;;12.40;;
21010;SDS011;10663;42.714;23.274;2023-04-24T05:03:25;19.13;;;12.13;;
21010;SDS011;10663;42.714;23.274;2023-04-24T05:05:02;15.88;;;10.90;;
21010;SDS011;10663;42.714;23.274;2023-04-24T05:06:33;19.23;;;11.60;;
21010;SDS011;10663;42.714;23.274;2023-04-24T05:08:04;15.53;;;11.33;;
21010;SDS011;10663;42.714;23.274;2023-04-24T05:09:35;17.93;;;11.53;;
21010;SDS011;10663;42.714;23.274;2023-04-24T05:11:09;15.27;;;10.67;;
21010;SDS011;10663;42.714;23.274;2023-04-24T05:12:42;18.17;;;11.93;;
21010;SDS011;10663;42.714;23.274;2023-04-24T05:14:13;20.70;;;12.20;;
21010;SDS011;10663;42.714;23.274;2023-04-24T05:15:44;19.90;;;11.65;;
21010;SDS011;10663;42.714;23.274;2023-04-24T05:17:16;18.45;;;11.23;;
21010;SDS011;10663;42.714;23.274;2023-04-24T05:18:47;19.13;;;11.30;;
21010;SDS011;10663;42.714;23.274;2023-04-24T05:20:22;17.27;;;11.70;;
21010;SDS011;10663;42.714;23.274;2023-04-24T05:21:53;18.03;;;11.80;;
21010;SDS011;10663;42.714;23.274;2023-04-24T05:23:24;18.95;;;12.15;;
21010;SDS011;10663;42.714;23.274;2023-04-24T05:24:58;17.25;;;10.93;;
21010;SDS011;10663;42.714;23.274;2023-04-24T05:26:42;17.08;;;10.95;;
21010;SDS011;10663;42.714;23.274;2023-04-24T05:28:14;14.82;;;10.63;;
21010;SDS011;10663;42.714;23.274;2023-04-24T05:29:46;15.52;;;10.18;;
21010;SDS011;10663;42.714;23.274;2023-04-24T05:31:17;16.88;;;10.43;;
21010;SDS011;10663;42.714;23.274;2023-04-24T05:32:48;18.48;;;11.48;;
21010;SDS011;10663;42.714;23.274;2023-04-24T05:34:19;17.92;;;10.88;;
21010;SDS011;10663;42.714;23.274;2023-04-24T05:35:54;18.35;;;10.75;;
21010;SDS011;10663;42.714;23.274;2023-04-24T05:37:26;22.13;;;12.13;;
21010;SDS011;10663;42.714;23.274;2023-04-24T05:38:57;16.73;;;11.20;;
21010;SDS011;10663;42.714;23.274;2023-04-24T05:40:28;15.95;;;10.50;;
21010;SDS011;10663;42.714;23.274;2023-04-24T05:41:59;16.37;;;10.63;;
21010;SDS011;10663;42.714;23.274;2023-04-24T05:43:31;13.15;;;9.32;;
21010;SDS011;10663;42.714;23.274;2023-04-24T05:45:03;13.52;;;9.25;;
21010;SDS011;10663;42.714;23.274;2023-04-24T05:46:35;17.10;;;9.70;;
21010;SDS011;10663;42.714;23.274;2023-04-24T05:48:06;15.57;;;9.27;;
21010;SDS011;10663;42.714;23.274;2023-04-24T05:49:37;12.85;;;9.50;;
21010;SDS011;10663;42.714;23.274;2023-04-24T05:51:09;13.52;;;9.25;;
21010;SDS011;10663;42.714;23.274;2023-04-24T05:52:40;13.13;;;8.98;;
21010;SDS011;10663;42.714;23.274;2023-04-24T05:54:25;14.13;;;9.40;;
21010;SDS011;10663;42.714;23.274;2023-04-24T05:55:56;15.65;;;9.75;;
21010;SDS011;10663;42.714;23.274;2023-04-24T05:57:28;16.05;;;10.38;;
21010;SDS011;10663;42.714;23.274;2023-04-24T05:59:06;15.93;;;9.80;;
21010;SDS011;10663;42.714;23.274;2023-04-24T06:00:38;17.95;;;9.75;;
21010;SDS011;10663;42.714;23.274;2023-04-24T06:02:12;16.52;;;9.40;;
21010;SDS011;10663;42.714;23.274;2023-04-24T06:03:43;14.07;;;8.70;;
21010;SDS011;10663;42.714;23.274;2023-04-24T06:05:13;13.80;;;9.02;;
21010;SDS011;10663;42.714;23.274;2023-04-24T06:06:45;14.63;;;9.70;;
21010;SDS011;10663;42.714;23.274;2023-04-24T06:08:16;13.45;;;9.27;;
21010;SDS011;10663;42.714;23.274;2023-04-24T06:09:48;17.83;;;9.48;;
21010;SDS011;10663;42.714;23.274;2023-04-24T06:11:20;13.30;;;8.55;;
21010;SDS011;10663;42.714;23.274;2023-04-24T06:12:51;14.45;;;9.32;;
21010;SDS011;10663;42.714;23.274;2023-04-24T06:14:22;12.85;;;9.15;;
21010;SDS011;10663;42.714;23.274;2023-04-24T06:16:16;12.52;;;9.32;;
21010;SDS011;10663;42.714;23.274;2023-04-24T06:17:53;13.98;;;9.95;;
21010;SDS011;10663;42.714;23.274;2023-04-24T06:19:25;13.48;;;9.25;;
21010;SDS011;10663;42.714;23.274;2023-04-24T06:20:56;11.85;;;8.77;;
21010;SDS011;10663;42.714;23.274;2023-04-24T06:22:28;12.82;;;9.27;;
21010;SDS011;10663;42.714;23.274;2023-04-24T06:23:59;12.00;;;8.57;;
21010;SDS011;10663;42.714;23.274;2023-04-24T06:25:30;15.05;;;8.50;;
21010;SDS011;10663;42.714;23.274;2023-04-24T06:27:02;11.82;;;8.32;;
21010;SDS011;10663;42.714;23.274;2023-04-24T06:28:33;13.53;;;8.10;;
21010;SDS011;10663;42.714;23.274;2023-04-24T06:30:04;12.80;;;8.20;;
21010;SDS011;10663;42.714;23.274;2023-04-24T06:31:37;10.25;;;8.07;;
21010;SDS011;10663;42.714;23.274;2023-04-24T06:33:08;11.07;;;8.20;;
21010;SDS011;10663;42.714;23.274;2023-04-24T06:34:40;12.40;;;8.65;;
21010;SDS011;10663;42.714;23.274;2023-04-24T06:36:12;12.20;;;8.60;;
21010;SDS011;10663;42.714;23.274;2023-04-24T06:37:43;13.75;;;9.02;;
21010;SDS011;10663;42.714;23.274;2023-04-24T06:39:14;14.35;;;8.57;;
21010;SDS011;10663;42.714;23.274;2023-04-24T06:40:48;12.38;;;9.00;;
21010;SDS011;10663;42.714;23.274;2023-04-24T06:42:19;10.17;;;8.30;;
21010;SDS011;10663;42.714;23.274;2023-04-24T06:43:53;11.60;;;7.78;;
21010;SDS011;10663;42.714;23.274;2023-04-24T06:45:25;12.63;;;7.65;;
21010;SDS011;10663;42.714;23.274;2023-04-24T06:46:56;12.38;;;8.60;;
21010;SDS011;10663;42.714;23.274;2023-04-24T06:48:26;10.57;;;8.10;;
21010;SDS011;10663;42.714;23.274;2023-04-24T06:49:57;12.07;;;7.87;;
21010;SDS011;10663;42.714;23.274;2023-04-24T06:51:28;14.70;;;8.87;;
21010;SDS011;10663;42.714;23.274;2023-04-24T06:52:59;12.13;;;8.35;;
21010;SDS011;10663;42.714;23.274;2023-04-24T06:54:30;12.13;;;8.93;;
21010;SDS011;10663;42.714;23.274;2023-04-24T06:56:01;13.43;;;9.13;;
21010;SDS011;10663;42.714;23.274;2023-04-24T06:57:32;15.70;;;10.02;;
21010;SDS011;10663;42.714;23.274;2023-04-24T06:59:03;11.88;;;8.48;;
21010;SDS011;10663;42.714;23.274;2023-04-24T07:00:34;12.43;;;9.13;;
21010;SDS011;10663;42.714;23.274;2023-04-24T07:02:05;14.50;;;8.68;;
21010;SDS011;10663;42.714;23.274;2023-04-24T07:03:37;11.63;;;8.83;;
21010;SDS011;10663;42.714;23.274;2023-04-24T07:05:07;12.73;;;8.60;;
21010;SDS011;10663;42.714;23.274;2023-04-24T07:06:38;13.15;;;8.73;;
21010;SDS011;10663;42.714;23.274;2023-04-24T07:08:09;9.93;;;8.35;;
21010;SDS011;10663;42.714;23.274;2023-04-24T07:09:42;12.85;;;9.07;;
21010;SDS011;10663;42.714;23.274;2023-04-24T07:11:13;13.60;;;8.25;;
21010;SDS011;10663;42.714;23.274;2023-04-24T07:12:43;14.60;;;8.40;;
21010;SDS011;10663;42.714;23.274;2023-04-24T07:14:14;14.02;;;8.52;;
21010;SDS011;10663;42.714;23.274;2023-04-24T07:15:46;12.55;;;8.52;;
21010;SDS011;10663;42.714;23.274;2023-04-24T07:17:19;13.10;;;8.52;;
21010;SDS011;10663;42.714;23.274;2023-04-24T07:18:50;12.63;;;9.40;;
21010;SDS011;10663;42.714;23.274;2023-04-24T07:20:22;14.15;;;8.50;;
21010;SDS011;10663;42.714;23.274;2023-04-24T07:21:53;13.98;;;9.55;;
21010;SDS011;10663;42.714;23.274;2023-04-24T07:23:26;12.97;;;8.50;;
21010;SDS011;10663;42.714;23.274;2023-04-24T07:24:57;12.75;;;8.48;;
21010;SDS011;10663;42.714;23.274;2023-04-24T07:26:29;12.38;;;9.18;;
21010;SDS011;10663;42.714;23.274;2023-04-24T07:28:00;13.40;;;8.57;;
21010;SDS011;10663;42.714;23.274;2023-04-24T07:29:31;12.37;;;8.80;;
21010;SDS011;10663;42.714;23.274;2023-04-24T07:31:02;11.73;;;9.15;;
21010;SDS011;10663;42.714;23.274;2023-04-24T07:32:33;13.18;;;9.40;;
21010;SDS011;10663;42.714;23.274;2023-04-24T07:34:04;12.27;;;8.88;;
21010;SDS011;10663;42.714;23.274;2023-04-24T07:35:35;13.48;;;8.77;;
21010;SDS011;10663;42.714;23.274;2023-04-24T07:37:06;13.85;;;9.98;;
21010;SDS011;10663;42.714;23.274;2023-04-24T07:38:37;11.88;;;9.27;;
21010;SDS011;10663;42.714;23.274;2023-04-24T07:40:08;12.27;;;9.25;;
21010;SDS011;10663;42.714;23.274;2023-04-24T07:41:39;13.38;;;8.90;;
21010;SDS011;10663;42.714;23.274;2023-04-24T07:43:10;12.50;;;9.30;;
21010;SDS011;10663;42.714;23.274;2023-04-24T07:44:41;14.27;;;9.98;;
21010;SDS011;10663;42.714;23.274;2023-04-24T07:46:13;12.68;;;9.60;;
21010;SDS011;10663;42.714;23.274;2023-04-24T07:47:44;13.50;;;9.40;;
21010;SDS011;10663;42.714;23.274;2023-04-24T07:49:15;15.20;;;10.03;;
21010;SDS011;10663;42.714;23.274;2023-04-24T07:50:46;13.48;;;8.90;;
21010;SDS011;10663;42.714;23.274;2023-04-24T07:52:17;10.90;;;8.02;;
21010;SDS011;10663;42.714;23.274;2023-04-24T07:53:49;11.73;;;7.80;;
21010;SDS011;10663;42.714;23.274;2023-04-24T07:55:20;9.57;;;7.60;;
21010;SDS011;10663;42.714;23.274;2023-04-24T07:56:51;9.85;;;7.60;;
21010;SDS011;10663;42.714;23.274;2023-04-24T07:58:22;13.47;;;8.27;;
21010;SDS011;10663;42.714;23.274;2023-04-24T07:59:53;10.48;;;8.40;;
21010;SDS011;10663;42.714;23.274;2023-04-24T08:01:23;9.13;;;7.78;;
21010;SDS011;10663;42.714;23.274;2023-04-24T08:02:54;12.45;;;8.07;;
21010;SDS011;10663;42.714;23.274;2023-04-24T08:04:25;11.70;;;7.68;;
21010;SDS011;10663;42.714;23.274;2023-04-24T08:05:56;10.53;;;8.20;;
21010;SDS011;10663;42.714;23.274;2023-04-24T08:07:27;12.27;;;8.50;;
21010;SDS011;10663;42.714;23.274;2023-04-24T08:08:58;10.10;;;8.18;;
21010;SDS011;10663;42.714;23.274;2023-04-24T08:10:29;14.15;;;8.88;;
21010;SDS011;10663;42.714;23.274;2023-04-24T08:12:00;10.48;;;7.78;;
21010;SDS011;10663;42.714;23.274;2023-04-24T08:13:32;9.90;;;7.85;;
21010;SDS011;10663;42.714;23.274;2023-04-24T08:15:04;9.00;;;7.78;;
21010;SDS011;10663;42.714;23.274;2023-04-24T08:16:35;10.57;;;8.13;;
21010;SDS011;10663;42.714;23.274;2023-04-24T08:18:06;12.00;;;8.05;;
21010;SDS011;10663;42.714;23.274;2023-04-24T08:19:37;11.50;;;8.00;;
21010;SDS011;10663;42.714;23.274;2023-04-24T08:21:08;12.07;;;8.30;;
21010;SDS011;10663;42.714;23.274;2023-04-24T08:22:39;11.65;;;8.43;;
21010;SDS011;10663;42.714;23.274;2023-04-24T08:24:11;10.95;;;8.85;;
21010;SDS011;10663;42.714;23.274;2023-04-24T08:25:42;11.43;;;8.73;;
21010;SDS011;10663;42.714;23.274;2023-04-24T08:27:13;10.73;;;8.27;;
21010;SDS011;10663;42.714;23.274;2023-04-24T08:28:44;12.55;;;8.15;;
21010;SDS011;10663;42.714;23.274;2023-04-24T08:30:15;11.88;;;7.70;;
21010;SDS011;10663;42.714;23.274;2023-04-24T08:31:46;11.43;;;8.73;;
21010;SDS011;10663;42.714;23.274;2023-04-24T08:33:16;11.83;;;8.20;;
21010;SDS011;10663;42.714;23.274;2023-04-24T08:34:47;9.43;;;8.15;;
21010;SDS011;10663;42.714;23.274;2023-04-24T08:36:18;9.60;;;8.10;;
21010;SDS011;10663;42.714;23.274;2023-04-24T08:37:50;9.65;;;8.65;;
21010;SDS011;10663;42.714;23.274;2023-04-24T08:39:20;11.95;;;8.63;;
21010;SDS011;10663;42.714;23.274;2023-04-24T08:40:51;10.93;;;7.82;;
21010;SDS011;10663;42.714;23.274;2023-04-24T08:42:22;12.38;;;8.10;;
21010;SDS011;10663;42.714;23.274;2023-04-24T08:43:54;11.30;;;8.50;;
21010;SDS011;10663;42.714;23.274;2023-04-24T08:45:28;9.30;;;8.30;;
21010;SDS011;10663;42.714;23.274;2023-04-24T08:47:00;11.90;;;8.45;;
21010;SDS011;10663;42.714;23.274;2023-04-24T08:48:32;14.95;;;9.05;;
21010;SDS011;10663;42.714;23.274;2023-04-24T08:50:04;11.57;;;7.60;;
21010;SDS011;10663;42.714;23.274;2023-04-24T08:51:36;9.98;;;7.88;;
21010;SDS011;10663;42.714;23.274;2023-04-24T08:53:08;11.10;;;7.93;;
21010;SDS011;10663;42.714;23.274;2023-04-24T08:54:40;10.63;;;8.10;;
21010;SDS011;10663;42.714;23.274;2023-04-24T08:56:13;9.93;;;7.27;;
21010;SDS011;10663;42.714;23.274;2023-04-24T08:57:45;9.57;;;7.45;;